sensor_id;sensor_type;location;lat;lon;timestamp;temperature;humidity
23671;DHT22;12012;51.998;7.614;2023-03-23T00:00:06;10.60;99.90
23671;DHT22;12012;51.998;7.614;2023-03-23T00:02:32;10.60;99.90
23671;DHT22;12012;51.998;7.614;2023-03-23T00:05:04;10.60;99.90
23671;DHT22;12012;51.998;7.614;2023-03-23T00:07:32;10.60;99.90
23671;DHT22;12012;51.998;7.614;2023-03-23T00:09:58;10.70;99.90
23671;DHT22;12012;51.998;7.614;2023-03-23T00:12:28;10.70;99.90
23671;DHT22;12012;51.998;7.614;2023-03-23T00:15:06;10.70;99.90
23671;DHT22;12012;51.998;7.614;2023-03-23T00:17:32;10.70;99.90
23671;DHT22;12012;51.998;7.614;2023-03-23T00:20:01;10.70;99.90
23671;DHT22;12012;51.998;7.614;2023-03-23T00:22:30;10.70;99.90
23671;DHT22;12012;51.998;7.614;2023-03-23T00:24:55;10.70;99.90
23671;DHT22;12012;51.998;7.614;2023-03-23T00:27:22;10.60;99.90
23671;DHT22;12012;51.998;7.614;2023-03-23T00:29:51;10.70;99.90
23671;DHT22;12012;51.998;7.614;2023-03-23T00:32:21;10.70;99.90
23671;DHT22;12012;51.998;7.614;2023-03-23T00:34:52;10.70;99.90
23671;DHT22;12012;51.998;7.614;2023-03-23T00:37:18;10.70;99.90
23671;DHT22;12012;51.998;7.614;2023-03-23T00:39:44;10.70;99.90
23671;DHT22;12012;51.998;7.614;2023-03-23T00:42:13;10.70;99.90
23671;DHT22;12012;51.998;7.614;2023-03-23T00:44:39;10.70;99.90
23671;DHT22;12012;51.998;7.614;2023-03-23T00:47:05;10.70;99.90
23671;DHT22;12012;51.998;7.614;2023-03-23T00:49:34;10.80;99.90
23671;DHT22;12012;51.998;7.614;2023-03-23T00:52:03;10.80;99.90
23671;DHT22;12012;51.998;7.614;2023-03-23T00:54:30;10.80;99.90
23671;DHT22;12012;51.998;7.614;2023-03-23T00:56:56;10.80;99.90
23671;DHT22;12012;51.998;7.614;2023-03-23T00:59:22;10.80;99.90
23671;DHT22;12012;51.998;7.614;2023-03-23T01:01:48;10.80;99.90
23671;DHT22;12012;51.998;7.614;2023-03-23T01:04:14;10.80;99.90
23671;DHT22;12012;51.998;7.614;2023-03-23T01:06:42;10.80;99.90
23671;DHT22;12012;51.998;7.614;2023-03-23T01:09:10;10.80;99.90
23671;DHT22;12012;51.998;7.614;2023-03-23T01:11:36;10.80;99.90
23671;DHT22;12012;51.998;7.614;2023-03-23T01:14:04;10.80;99.90
23671;DHT22;12012;51.998;7.614;2023-03-23T01:16:29;10.80;99.90
23671;DHT22;12012;51.998;7.614;2023-03-23T01:18:55;10.80;99.90
23671;DHT22;12012;51.998;7.614;2023-03-23T01:21:21;10.80;99.90
23671;DHT22;12012;51.998;7.614;2023-03-23T01:23:47;10.80;99.90
23671;DHT22;12012;51.998;7.614;2023-03-23T01:26:15;10.80;99.90
23671;DHT22;12012;51.998;7.614;2023-03-23T01:28:42;10.80;99.90
23671;DHT22;12012;51.998;7.614;2023-03-23T01:31:13;10.80;99.90
23671;DHT22;12012;51.998;7.614;2023-03-23T01:33:40;10.80;99.90
23671;DHT22;12012;51.998;7.614;2023-03-23T01:36:09;10.80;99.90
23671;DHT22;12012;51.998;7.614;2023-03-23T01:38:35;10.90;99.90
23671;DHT22;12012;51.998;7.614;2023-03-23T01:41:02;10.90;99.90
23671;DHT22;12012;51.998;7.614;2023-03-23T01:43:27;10.90;99.90
23671;DHT22;12012;51.998;7.614;2023-03-23T01:45:53;10.90;99.90
23671;DHT22;12012;51.998;7.614;2023-03-23T01:48:28;10.90;99.90
23671;DHT22;12012;51.998;7.614;2023-03-23T01:51:04;10.90;99.90
23671;DHT22;12012;51.998;7.614;2023-03-23T01:53:38;10.90;99.90
23671;DHT22;12012;51.998;7.614;2023-03-23T01:56:06;10.90;99.90
23671;DHT22;12012;51.998;7.614;2023-03-23T01:58:34;10.90;99.90
23671;DHT22;12012;51.998;7.614;2023-03-23T02:01:04;10.90;99.90
23671;DHT22;12012;51.998;7.614;2023-03-23T02:03:31;10.90;99.90
23671;DHT22;12012;51.998;7.614;2023-03-23T02:05:58;11.00;99.90
23671;DHT22;12012;51.998;7.614;2023-03-23T02:08:26;11.00;99.90
23671;DHT22;12012;51.998;7.614;2023-03-23T02:10:53;11.00;99.90
23671;DHT22;12012;51.998;7.614;2023-03-23T02:13:19;11.00;99.90
23671;DHT22;12012;51.998;7.614;2023-03-23T02:26:42;11.10;99.90
23671;DHT22;12012;51.998;7.614;2023-03-23T02:32:31;11.10;99.90
23671;DHT22;12012;51.998;7.614;2023-03-23T02:35:03;11.10;99.90
23671;DHT22;12012;51.998;7.614;2023-03-23T02:38:00;11.10;99.90
23671;DHT22;12012;51.998;7.614;2023-03-23T02:40:39;11.10;99.90
23671;DHT22;12012;51.998;7.614;2023-03-23T02:43:09;11.10;99.90
23671;DHT22;12012;51.998;7.614;2023-03-23T02:45:36;11.20;99.90
23671;DHT22;12012;51.998;7.614;2023-03-23T02:48:04;11.20;99.90
23671;DHT22;12012;51.998;7.614;2023-03-23T02:50:31;11.20;99.90
23671;DHT22;12012;51.998;7.614;2023-03-23T02:52:58;11.20;99.90
23671;DHT22;12012;51.998;7.614;2023-03-23T02:55:27;11.20;99.90
23671;DHT22;12012;51.998;7.614;2023-03-23T02:57:54;11.30;99.90
23671;DHT22;12012;51.998;7.614;2023-03-23T03:00:21;11.30;99.90
23671;DHT22;12012;51.998;7.614;2023-03-23T03:02:51;11.30;99.90
23671;DHT22;12012;51.998;7.614;2023-03-23T03:08:37;11.30;99.90
23671;DHT22;12012;51.998;7.614;2023-03-23T03:11:10;11.40;99.90
23671;DHT22;12012;51.998;7.614;2023-03-23T03:19:25;11.50;99.80
23671;DHT22;12012;51.998;7.614;2023-03-23T03:21:54;11.50;98.90
23671;DHT22;12012;51.998;7.614;2023-03-23T03:24:22;11.50;98.00
23671;DHT22;12012;51.998;7.614;2023-03-23T03:26:50;11.50;97.10
23671;DHT22;12012;51.998;7.614;2023-03-23T03:29:20;11.50;96.60
23671;DHT22;12012;51.998;7.614;2023-03-23T03:31:48;11.60;96.10
23671;DHT22;12012;51.998;7.614;2023-03-23T03:34:15;11.60;95.50
23671;DHT22;12012;51.998;7.614;2023-03-23T03:36:44;11.50;94.90
23671;DHT22;12012;51.998;7.614;2023-03-23T03:39:12;11.60;94.70
23671;DHT22;12012;51.998;7.614;2023-03-23T03:41:40;11.60;94.30
23671;DHT22;12012;51.998;7.614;2023-03-23T03:44:06;11.60;93.80
23671;DHT22;12012;51.998;7.614;2023-03-23T03:46:35;11.60;93.70
23671;DHT22;12012;51.998;7.614;2023-03-23T03:49:04;11.60;93.50
23671;DHT22;12012;51.998;7.614;2023-03-23T03:51:31;11.60;93.50
23671;DHT22;12012;51.998;7.614;2023-03-23T03:53:57;11.60;93.40
23671;DHT22;12012;51.998;7.614;2023-03-23T03:56:23;11.60;93.40
23671;DHT22;12012;51.998;7.614;2023-03-23T03:58:49;11.60;93.50
23671;DHT22;12012;51.998;7.614;2023-03-23T04:01:18;11.60;93.60
23671;DHT22;12012;51.998;7.614;2023-03-23T04:03:44;11.70;93.80
23671;DHT22;12012;51.998;7.614;2023-03-23T04:06:10;11.70;93.80
23671;DHT22;12012;51.998;7.614;2023-03-23T04:08:38;11.70;93.90
23671;DHT22;12012;51.998;7.614;2023-03-23T04:11:04;11.70;94.10
23671;DHT22;12012;51.998;7.614;2023-03-23T04:13:31;11.70;94.10
23671;DHT22;12012;51.998;7.614;2023-03-23T04:15:56;11.70;94.20
23671;DHT22;12012;51.998;7.614;2023-03-23T04:18:22;11.70;94.20
23671;DHT22;12012;51.998;7.614;2023-03-23T04:20:49;11.70;94.10
23671;DHT22;12012;51.998;7.614;2023-03-23T04:23:17;11.70;93.90
23671;DHT22;12012;51.998;7.614;2023-03-23T04:25:47;11.70;93.90
23671;DHT22;12012;51.998;7.614;2023-03-23T04:28:14;11.70;93.80
23671;DHT22;12012;51.998;7.614;2023-03-23T04:30:42;11.70;93.60
23671;DHT22;12012;51.998;7.614;2023-03-23T04:33:09;11.70;93.20
23671;DHT22;12012;51.998;7.614;2023-03-23T04:35:40;11.80;93.20
23671;DHT22;12012;51.998;7.614;2023-03-23T04:38:06;11.80;92.70
23671;DHT22;12012;51.998;7.614;2023-03-23T04:40:35;11.80;92.40
23671;DHT22;12012;51.998;7.614;2023-03-23T04:43:00;11.80;92.30
23671;DHT22;12012;51.998;7.614;2023-03-23T04:45:31;11.80;91.80
23671;DHT22;12012;51.998;7.614;2023-03-23T04:47:57;11.80;91.60
23671;DHT22;12012;51.998;7.614;2023-03-23T04:50:26;11.80;91.30
23671;DHT22;12012;51.998;7.614;2023-03-23T04:52:52;11.80;91.00
23671;DHT22;12012;51.998;7.614;2023-03-23T04:55:20;11.80;90.70
23671;DHT22;12012;51.998;7.614;2023-03-23T04:57:46;11.80;90.40
23671;DHT22;12012;51.998;7.614;2023-03-23T05:00:12;11.80;89.40
23671;DHT22;12012;51.998;7.614;2023-03-23T05:02:40;11.80;88.90
23671;DHT22;12012;51.998;7.614;2023-03-23T05:05:10;11.80;88.50
23671;DHT22;12012;51.998;7.614;2023-03-23T05:07:38;11.90;88.10
23671;DHT22;12012;51.998;7.614;2023-03-23T05:10:04;11.80;87.20
23671;DHT22;12012;51.998;7.614;2023-03-23T05:12:30;11.80;87.00
23671;DHT22;12012;51.998;7.614;2023-03-23T05:14:56;11.90;86.60
23671;DHT22;12012;51.998;7.614;2023-03-23T05:17:22;11.90;85.80
23671;DHT22;12012;51.998;7.614;2023-03-23T05:19:50;11.80;85.70
23671;DHT22;12012;51.998;7.614;2023-03-23T05:22:16;11.90;85.40
23671;DHT22;12012;51.998;7.614;2023-03-23T05:24:42;11.80;85.20
23671;DHT22;12012;51.998;7.614;2023-03-23T05:27:11;11.80;85.10
23671;DHT22;12012;51.998;7.614;2023-03-23T05:29:37;11.90;84.80
23671;DHT22;12012;51.998;7.614;2023-03-23T05:32:06;11.90;84.50
23671;DHT22;12012;51.998;7.614;2023-03-23T05:34:34;11.90;84.50
23671;DHT22;12012;51.998;7.614;2023-03-23T05:37:00;11.90;84.20
23671;DHT22;12012;51.998;7.614;2023-03-23T05:39:26;11.90;84.80
23671;DHT22;12012;51.998;7.614;2023-03-23T05:41:53;11.90;83.70
23671;DHT22;12012;51.998;7.614;2023-03-23T05:44:19;11.90;82.30
23671;DHT22;12012;51.998;7.614;2023-03-23T05:46:45;12.00;82.20
23671;DHT22;12012;51.998;7.614;2023-03-23T05:49:11;11.90;80.80
23671;DHT22;12012;51.998;7.614;2023-03-23T05:51:36;12.00;79.30
23671;DHT22;12012;51.998;7.614;2023-03-23T05:54:03;12.00;77.30
23671;DHT22;12012;51.998;7.614;2023-03-23T05:56:29;12.10;76.80
23671;DHT22;12012;51.998;7.614;2023-03-23T05:58:56;12.10;74.10
23671;DHT22;12012;51.998;7.614;2023-03-23T06:01:21;12.10;71.50
23671;DHT22;12012;51.998;7.614;2023-03-23T06:03:49;12.10;71.10
23671;DHT22;12012;51.998;7.614;2023-03-23T06:06:19;12.10;69.20
23671;DHT22;12012;51.998;7.614;2023-03-23T06:08:45;12.20;68.50
23671;DHT22;12012;51.998;7.614;2023-03-23T06:11:11;12.20;68.60
23671;DHT22;12012;51.998;7.614;2023-03-23T06:13:37;12.20;67.70
23671;DHT22;12012;51.998;7.614;2023-03-23T06:16:03;12.20;66.30
23671;DHT22;12012;51.998;7.614;2023-03-23T06:18:29;12.20;64.70
23671;DHT22;12012;51.998;7.614;2023-03-23T06:20:59;12.30;64.40
23671;DHT22;12012;51.998;7.614;2023-03-23T06:23:25;12.30;62.70
23671;DHT22;12012;51.998;7.614;2023-03-23T06:25:54;12.30;60.00
23671;DHT22;12012;51.998;7.614;2023-03-23T06:28:22;12.40;58.90
23671;DHT22;12012;51.998;7.614;2023-03-23T06:30:47;12.40;56.20
23671;DHT22;12012;51.998;7.614;2023-03-23T06:33:14;12.40;55.30
23671;DHT22;12012;51.998;7.614;2023-03-23T06:35:40;12.40;54.20
23671;DHT22;12012;51.998;7.614;2023-03-23T06:38:06;12.50;53.80
23671;DHT22;12012;51.998;7.614;2023-03-23T06:40:31;12.50;53.40
23671;DHT22;12012;51.998;7.614;2023-03-23T06:42:57;12.50;52.00
23671;DHT22;12012;51.998;7.614;2023-03-23T06:45:24;12.50;52.30
23671;DHT22;12012;51.998;7.614;2023-03-23T06:47:50;12.50;52.50
23671;DHT22;12012;51.998;7.614;2023-03-23T06:50:16;12.50;49.70
23671;DHT22;12012;51.998;7.614;2023-03-23T06:52:46;12.60;48.20
23671;DHT22;12012;51.998;7.614;2023-03-23T06:55:12;12.70;46.50
23671;DHT22;12012;51.998;7.614;2023-03-23T06:57:38;12.80;43.80
23671;DHT22;12012;51.998;7.614;2023-03-23T07:00:04;12.90;38.00
23671;DHT22;12012;51.998;7.614;2023-03-23T07:02:33;13.00;36.40
23671;DHT22;12012;51.998;7.614;2023-03-23T07:04:59;13.10;31.20
23671;DHT22;12012;51.998;7.614;2023-03-23T07:07:25;13.10;30.50
23671;DHT22;12012;51.998;7.614;2023-03-23T07:09:51;13.10;26.80
23671;DHT22;12012;51.998;7.614;2023-03-23T07:12:17;13.20;20.80
23671;DHT22;12012;51.998;7.614;2023-03-23T07:14:42;13.20;20.50
23671;DHT22;12012;51.998;7.614;2023-03-23T07:17:08;13.20;21.10
23671;DHT22;12012;51.998;7.614;2023-03-23T07:19:34;13.20;21.90
23671;DHT22;12012;51.998;7.614;2023-03-23T07:22:01;13.20;18.80
23671;DHT22;12012;51.998;7.614;2023-03-23T07:24:27;13.20;21.20
23671;DHT22;12012;51.998;7.614;2023-03-23T07:26:53;13.20;20.60
23671;DHT22;12012;51.998;7.614;2023-03-23T07:29:18;13.20;19.90
23671;DHT22;12012;51.998;7.614;2023-03-23T07:31:44;13.30;17.90
23671;DHT22;12012;51.998;7.614;2023-03-23T07:34:09;13.30;15.50
23671;DHT22;12012;51.998;7.614;2023-03-23T07:36:35;13.40;14.40
23671;DHT22;12012;51.998;7.614;2023-03-23T07:39:03;13.50;8.40
23671;DHT22;12012;51.998;7.614;2023-03-23T07:41:31;13.50;7.40
23671;DHT22;12012;51.998;7.614;2023-03-23T07:43:57;13.60;5.00
23671;DHT22;12012;51.998;7.614;2023-03-23T07:46:23;13.60;3.60
23671;DHT22;12012;51.998;7.614;2023-03-23T07:48:48;13.70;1.00
23671;DHT22;12012;51.998;7.614;2023-03-23T07:51:15;13.80;1.00
23671;DHT22;12012;51.998;7.614;2023-03-23T07:53:42;13.80;1.00
23671;DHT22;12012;51.998;7.614;2023-03-23T07:56:10;13.80;99.90
23671;DHT22;12012;51.998;7.614;2023-03-23T07:58:37;13.70;99.90
23671;DHT22;12012;51.998;7.614;2023-03-23T08:01:02;13.80;99.90
23671;DHT22;12012;51.998;7.614;2023-03-23T08:03:28;13.80;99.90
23671;DHT22;12012;51.998;7.614;2023-03-23T08:05:57;13.70;99.90
23671;DHT22;12012;51.998;7.614;2023-03-23T08:08:24;13.60;99.90
23671;DHT22;12012;51.998;7.614;2023-03-23T08:10:50;13.60;99.90
23671;DHT22;12012;51.998;7.614;2023-03-23T08:13:16;13.60;99.90
23671;DHT22;12012;51.998;7.614;2023-03-23T08:15:42;13.60;99.90
23671;DHT22;12012;51.998;7.614;2023-03-23T08:18:08;13.60;99.90
23671;DHT22;12012;51.998;7.614;2023-03-23T08:20:34;13.70;99.90
23671;DHT22;12012;51.998;7.614;2023-03-23T08:23:01;13.70;99.90
23671;DHT22;12012;51.998;7.614;2023-03-23T08:25:28;13.70;54.60
23671;DHT22;12012;51.998;7.614;2023-03-23T08:27:56;13.70;8.10
23671;DHT22;12012;51.998;7.614;2023-03-23T08:30:22;13.80;1.00
23671;DHT22;12012;51.998;7.614;2023-03-23T08:32:48;13.80;1.00
23671;DHT22;12012;51.998;7.614;2023-03-23T08:35:15;13.90;99.90
23671;DHT22;12012;51.998;7.614;2023-03-23T08:37:41;13.90;99.90
23671;DHT22;12012;51.998;7.614;2023-03-23T08:40:09;14.00;99.90
23671;DHT22;12012;51.998;7.614;2023-03-23T08:42:39;14.10;77.30
23671;DHT22;12012;51.998;7.614;2023-03-23T08:45:07;14.30;1.00
23671;DHT22;12012;51.998;7.614;2023-03-23T08:47:34;14.40;1.00
23671;DHT22;12012;51.998;7.614;2023-03-23T08:50:01;14.50;99.90
23671;DHT22;12012;51.998;7.614;2023-03-23T08:52:27;14.50;99.90
23671;DHT22;12012;51.998;7.614;2023-03-23T08:54:54;14.50;99.90
23671;DHT22;12012;51.998;7.614;2023-03-23T08:57:19;14.50;99.90
23671;DHT22;12012;51.998;7.614;2023-03-23T08:59:45;14.50;99.90
23671;DHT22;12012;51.998;7.614;2023-03-23T09:02:11;14.50;99.90
23671;DHT22;12012;51.998;7.614;2023-03-23T09:04:38;14.50;99.90
23671;DHT22;12012;51.998;7.614;2023-03-23T09:07:05;14.40;99.90
23671;DHT22;12012;51.998;7.614;2023-03-23T09:09:31;14.30;99.90
23671;DHT22;12012;51.998;7.614;2023-03-23T09:11:59;14.20;1.00
23671;DHT22;12012;51.998;7.614;2023-03-23T09:14:25;14.10;1.00
23671;DHT22;12012;51.998;7.614;2023-03-23T09:16:50;14.00;1.00
23671;DHT22;12012;51.998;7.614;2023-03-23T09:19:16;13.80;99.90
23671;DHT22;12012;51.998;7.614;2023-03-23T09:21:42;13.60;1.00
23671;DHT22;12012;51.998;7.614;2023-03-23T09:24:07;13.40;99.90
23671;DHT22;12012;51.998;7.614;2023-03-23T09:26:33;13.20;99.90
23671;DHT22;12012;51.998;7.614;2023-03-23T09:28:58;13.00;1.00
23671;DHT22;12012;51.998;7.614;2023-03-23T09:31:24;12.80;1.00
23671;DHT22;12012;51.998;7.614;2023-03-23T09:33:53;12.70;4.50
23671;DHT22;12012;51.998;7.614;2023-03-23T09:36:21;12.50;1.00
23671;DHT22;12012;51.998;7.614;2023-03-23T09:38:47;12.50;91.90
23671;DHT22;12012;51.998;7.614;2023-03-23T09:44:31;12.30;99.90
23671;DHT22;12012;51.998;7.614;2023-03-23T09:49:53;11.90;99.90
23671;DHT22;12012;51.998;7.614;2023-03-23T09:52:20;11.70;1.00
23671;DHT22;12012;51.998;7.614;2023-03-23T09:54:51;11.40;99.90
23671;DHT22;12012;51.998;7.614;2023-03-23T10:02:38;10.90;99.90
23671;DHT22;12012;51.998;7.614;2023-03-23T10:05:31;10.70;1.00
23671;DHT22;12012;51.998;7.614;2023-03-23T10:07:59;10.60;1.00
23671;DHT22;12012;51.998;7.614;2023-03-23T10:10:39;10.50;1.00
23671;DHT22;12012;51.998;7.614;2023-03-23T10:13:20;10.50;1.00
23671;DHT22;12012;51.998;7.614;2023-03-23T10:15:48;10.50;1.00
23671;DHT22;12012;51.998;7.614;2023-03-23T10:18:27;10.50;1.00
23671;DHT22;12012;51.998;7.614;2023-03-23T10:20:57;10.50;1.00
23671;DHT22;12012;51.998;7.614;2023-03-23T10:23:35;10.50;1.00
23671;DHT22;12012;51.998;7.614;2023-03-23T10:26:19;10.50;1.00
23671;DHT22;12012;51.998;7.614;2023-03-23T10:28:50;10.50;1.00
23671;DHT22;12012;51.998;7.614;2023-03-23T10:31:34;10.60;1.00
23671;DHT22;12012;51.998;7.614;2023-03-23T10:34:16;10.80;1.00
23671;DHT22;12012;51.998;7.614;2023-03-23T10:39:54;10.90;1.00
23671;DHT22;12012;51.998;7.614;2023-03-23T10:42:46;11.10;1.00
23671;DHT22;12012;51.998;7.614;2023-03-23T10:45:29;11.30;99.90
23671;DHT22;12012;51.998;7.614;2023-03-23T10:48:09;11.60;99.90
23671;DHT22;12012;51.998;7.614;2023-03-23T10:50:38;12.10;1.00
23671;DHT22;12012;51.998;7.614;2023-03-23T10:53:22;12.50;99.90
23671;DHT22;12012;51.998;7.614;2023-03-23T10:55:49;12.80;99.90
23671;DHT22;12012;51.998;7.614;2023-03-23T10:58:30;12.90;1.00
23671;DHT22;12012;51.998;7.614;2023-03-23T11:01:02;12.90;99.90
23671;DHT22;12012;51.998;7.614;2023-03-23T11:03:47;12.70;1.00
23671;DHT22;12012;51.998;7.614;2023-03-23T11:06:24;12.60;99.90
23671;DHT22;12012;51.998;7.614;2023-03-23T11:08:56;12.40;13.00
23671;DHT22;12012;51.998;7.614;2023-03-23T11:11:29;12.40;1.00
23671;DHT22;12012;51.998;7.614;2023-03-23T11:13:59;12.40;99.90
23671;DHT22;12012;51.998;7.614;2023-03-23T11:16:28;12.40;1.00
23671;DHT22;12012;51.998;7.614;2023-03-23T11:18:54;12.30;99.90
23671;DHT22;12012;51.998;7.614;2023-03-23T11:21:22;12.30;1.00
23671;DHT22;12012;51.998;7.614;2023-03-23T11:23:57;12.30;1.00
23671;DHT22;12012;51.998;7.614;2023-03-23T11:26:34;12.30;99.90
23671;DHT22;12012;51.998;7.614;2023-03-23T11:29:16;12.20;99.90
23671;DHT22;12012;51.998;7.614;2023-03-23T11:34:15;12.20;90.20
23671;DHT22;12012;51.998;7.614;2023-03-23T11:36:43;12.30;99.90
23671;DHT22;12012;51.998;7.614;2023-03-23T11:41:49;12.10;99.90
23671;DHT22;12012;51.998;7.614;2023-03-23T11:44:15;12.10;1.00
23671;DHT22;12012;51.998;7.614;2023-03-23T11:46:51;12.10;1.00
23671;DHT22;12012;51.998;7.614;2023-03-23T11:49:42;12.20;99.90
23671;DHT22;12012;51.998;7.614;2023-03-23T11:52:22;12.30;16.20
23671;DHT22;12012;51.998;7.614;2023-03-23T11:55:15;12.40;1.00
23671;DHT22;12012;51.998;7.614;2023-03-23T11:57:42;12.70;99.90
23671;DHT22;12012;51.998;7.614;2023-03-23T12:00:20;13.20;99.90
23671;DHT22;12012;51.998;7.614;2023-03-23T12:03:08;13.50;99.90
23671;DHT22;12012;51.998;7.614;2023-03-23T12:08:38;15.40;99.90
23671;DHT22;12012;51.998;7.614;2023-03-23T12:27:53;17.20;99.90
23671;DHT22;12012;51.998;7.614;2023-03-23T12:38:47;21.30;99.90
23671;DHT22;12012;51.998;7.614;2023-03-23T12:41:20;23.00;99.90
23671;DHT22;12012;51.998;7.614;2023-03-23T12:44:07;23.20;94.60
23671;DHT22;12012;51.998;7.614;2023-03-23T12:49:27;25.70;47.20
23671;DHT22;12012;51.998;7.614;2023-03-23T12:57:16;25.60;7.70
23671;DHT22;12012;51.998;7.614;2023-03-23T13:02:30;21.40;1.00
23671;DHT22;12012;51.998;7.614;2023-03-23T13:05:08;20.00;1.00
23671;DHT22;12012;51.998;7.614;2023-03-23T13:07:43;19.70;2.60
23671;DHT22;12012;51.998;7.614;2023-03-23T13:10:23;19.60;8.10
23671;DHT22;12012;51.998;7.614;2023-03-23T13:12:52;19.20;12.90
23671;DHT22;12012;51.998;7.614;2023-03-23T13:15:32;18.70;18.20
23671;DHT22;12012;51.998;7.614;2023-03-23T13:18:44;18.60;28.00
23671;DHT22;12012;51.998;7.614;2023-03-23T13:21:07;18.50;39.70
23671;DHT22;12012;51.998;7.614;2023-03-23T13:23:44;18.30;52.50
23671;DHT22;12012;51.998;7.614;2023-03-23T13:26:19;19.30;56.90
23671;DHT22;12012;51.998;7.614;2023-03-23T13:31:38;19.10;57.40
23671;DHT22;12012;51.998;7.614;2023-03-23T13:36:42;21.90;46.90
23671;DHT22;12012;51.998;7.614;2023-03-23T13:42:02;23.80;20.70
23671;DHT22;12012;51.998;7.614;2023-03-23T13:50:00;25.10;3.90
23671;DHT22;12012;51.998;7.614;2023-03-23T13:57:53;26.50;1.00
23671;DHT22;12012;51.998;7.614;2023-03-23T14:03:00;26.70;1.00
23671;DHT22;12012;51.998;7.614;2023-03-23T14:05:41;26.80;1.00
23671;DHT22;12012;51.998;7.614;2023-03-23T14:08:24;25.80;1.00
23671;DHT22;12012;51.998;7.614;2023-03-23T14:10:53;24.20;1.00
23671;DHT22;12012;51.998;7.614;2023-03-23T14:13:32;23.20;1.00
23671;DHT22;12012;51.998;7.614;2023-03-23T14:18:36;23.60;1.00
23671;DHT22;12012;51.998;7.614;2023-03-23T14:21:03;23.90;1.00
23671;DHT22;12012;51.998;7.614;2023-03-23T14:23:32;23.90;1.00
23671;DHT22;12012;51.998;7.614;2023-03-23T14:26:12;23.70;1.00
23671;DHT22;12012;51.998;7.614;2023-03-23T14:28:44;23.20;1.00
23671;DHT22;12012;51.998;7.614;2023-03-23T14:31:20;22.50;1.00
23671;DHT22;12012;51.998;7.614;2023-03-23T14:33:47;21.50;1.00
23671;DHT22;12012;51.998;7.614;2023-03-23T14:36:14;21.30;1.00
23671;DHT22;12012;51.998;7.614;2023-03-23T14:38:44;20.70;1.00
23671;DHT22;12012;51.998;7.614;2023-03-23T14:41:11;20.00;1.00
23671;DHT22;12012;51.998;7.614;2023-03-23T14:43:37;19.40;1.00
23671;DHT22;12012;51.998;7.614;2023-03-23T14:46:07;19.70;1.00
23671;DHT22;12012;51.998;7.614;2023-03-23T14:48:33;20.40;1.00
23671;DHT22;12012;51.998;7.614;2023-03-23T14:51:02;21.40;1.00
23671;DHT22;12012;51.998;7.614;2023-03-23T14:53:37;22.10;1.00
23671;DHT22;12012;51.998;7.614;2023-03-23T14:56:12;22.50;1.00
23671;DHT22;12012;51.998;7.614;2023-03-23T14:58:38;22.80;1.00
23671;DHT22;12012;51.998;7.614;2023-03-23T15:01:33;22.90;1.00
23671;DHT22;12012;51.998;7.614;2023-03-23T15:04:02;22.70;1.00
23671;DHT22;12012;51.998;7.614;2023-03-23T15:06:31;22.00;1.00
23671;DHT22;12012;51.998;7.614;2023-03-23T15:09:00;21.00;1.00
23671;DHT22;12012;51.998;7.614;2023-03-23T15:11:32;20.00;1.00
23671;DHT22;12012;51.998;7.614;2023-03-23T15:14:14;19.10;1.00
23671;DHT22;12012;51.998;7.614;2023-03-23T15:16:46;18.40;1.00
23671;DHT22;12012;51.998;7.614;2023-03-23T15:19:16;18.00;1.00
23671;DHT22;12012;51.998;7.614;2023-03-23T15:21:53;17.60;2.70
23671;DHT22;12012;51.998;7.614;2023-03-23T15:24:27;17.20;18.80
23671;DHT22;12012;51.998;7.614;2023-03-23T15:27:02;17.00;45.40
23671;DHT22;12012;51.998;7.614;2023-03-23T15:29:28;16.90;90.20
23671;DHT22;12012;51.998;7.614;2023-03-23T15:31:54;16.90;99.90
23671;DHT22;12012;51.998;7.614;2023-03-23T15:34:33;16.90;99.90
23671;DHT22;12012;51.998;7.614;2023-03-23T15:37:13;16.80;99.90
23671;DHT22;12012;51.998;7.614;2023-03-23T15:39:42;16.80;99.90
23671;DHT22;12012;51.998;7.614;2023-03-23T15:42:27;16.60;99.90
23671;DHT22;12012;51.998;7.614;2023-03-23T15:44:58;16.50;99.90
23671;DHT22;12012;51.998;7.614;2023-03-23T15:50:13;16.20;99.90
23671;DHT22;12012;51.998;7.614;2023-03-23T15:52:41;16.10;99.90
23671;DHT22;12012;51.998;7.614;2023-03-23T15:55:35;16.10;99.90
23671;DHT22;12012;51.998;7.614;2023-03-23T15:58:01;16.00;99.90
23671;DHT22;12012;51.998;7.614;2023-03-23T16:00:30;15.80;99.90
23671;DHT22;12012;51.998;7.614;2023-03-23T16:02:59;15.70;99.90
23671;DHT22;12012;51.998;7.614;2023-03-23T16:05:26;15.60;99.90
23671;DHT22;12012;51.998;7.614;2023-03-23T16:07:52;15.50;99.90
23671;DHT22;12012;51.998;7.614;2023-03-23T16:10:21;15.40;1.00
23671;DHT22;12012;51.998;7.614;2023-03-23T16:12:46;15.30;1.00
23671;DHT22;12012;51.998;7.614;2023-03-23T16:15:13;15.20;1.00
23671;DHT22;12012;51.998;7.614;2023-03-23T16:17:40;15.00;13.00
23671;DHT22;12012;51.998;7.614;2023-03-23T16:20:24;14.90;84.60
23671;DHT22;12012;51.998;7.614;2023-03-23T16:22:51;14.80;99.90
23671;DHT22;12012;51.998;7.614;2023-03-23T16:25:17;14.80;99.90
23671;DHT22;12012;51.998;7.614;2023-03-23T16:27:44;14.70;99.90
23671;DHT22;12012;51.998;7.614;2023-03-23T16:30:26;14.60;99.90
23671;DHT22;12012;51.998;7.614;2023-03-23T16:32:53;14.50;1.00
23671;DHT22;12012;51.998;7.614;2023-03-23T16:35:19;14.40;1.00
23671;DHT22;12012;51.998;7.614;2023-03-23T16:37:52;14.30;1.00
23671;DHT22;12012;51.998;7.614;2023-03-23T16:40:21;14.20;1.00
23671;DHT22;12012;51.998;7.614;2023-03-23T16:42:47;14.20;68.40
23671;DHT22;12012;51.998;7.614;2023-03-23T16:45:13;14.10;27.20
23671;DHT22;12012;51.998;7.614;2023-03-23T16:47:40;14.10;99.90
23671;DHT22;12012;51.998;7.614;2023-03-23T16:50:08;14.00;99.90
23671;DHT22;12012;51.998;7.614;2023-03-23T16:52:40;14.00;99.90
23671;DHT22;12012;51.998;7.614;2023-03-23T16:55:07;13.90;99.90
23671;DHT22;12012;51.998;7.614;2023-03-23T16:57:34;13.90;99.90
23671;DHT22;12012;51.998;7.614;2023-03-23T17:00:03;13.80;99.90
23671;DHT22;12012;51.998;7.614;2023-03-23T17:02:30;13.70;99.90
23671;DHT22;12012;51.998;7.614;2023-03-23T17:04:56;13.50;99.90
23671;DHT22;12012;51.998;7.614;2023-03-23T17:07:22;13.40;71.10
23671;DHT22;12012;51.998;7.614;2023-03-23T17:09:48;13.30;1.00
23671;DHT22;12012;51.998;7.614;2023-03-23T17:12:14;13.10;29.80
23671;DHT22;12012;51.998;7.614;2023-03-23T17:14:40;13.00;1.00
23671;DHT22;12012;51.998;7.614;2023-03-23T17:17:06;12.80;94.60
23671;DHT22;12012;51.998;7.614;2023-03-23T17:19:32;12.80;99.90
23671;DHT22;12012;51.998;7.614;2023-03-23T17:21:57;12.70;1.00
23671;DHT22;12012;51.998;7.614;2023-03-23T17:24:23;12.50;1.00
23671;DHT22;12012;51.998;7.614;2023-03-23T17:26:49;12.40;99.90
23671;DHT22;12012;51.998;7.614;2023-03-23T17:29:15;12.30;78.30
23671;DHT22;12012;51.998;7.614;2023-03-23T17:31:40;12.30;80.20
23671;DHT22;12012;51.998;7.614;2023-03-23T17:34:06;12.30;1.00
23671;DHT22;12012;51.998;7.614;2023-03-23T17:36:31;12.20;99.90